createdAt,value
2022-12-08T00:02:06.431Z,11.55
2022-12-08T00:04:54.096Z,11.40
2022-12-08T00:07:40.405Z,11.60
2022-12-08T00:10:39.826Z,13.30
2022-12-08T00:12:56.188Z,10.20
2022-12-08T00:15:23.889Z,11.50
2022-12-08T00:17:51.467Z,12.80
2022-12-08T00:20:18.967Z,9.05
2022-12-08T00:22:46.676Z,7.32
2022-12-08T00:25:14.850Z,8.70
2022-12-08T00:27:42.440Z,8.50
2022-12-08T00:30:10.727Z,7.57
2022-12-08T00:32:38.446Z,10.00
2022-12-08T00:35:06.341Z,6.05
2022-12-08T00:37:34.100Z,5.40
2022-12-08T00:40:01.991Z,10.38
2022-12-08T00:42:29.967Z,7.83
2022-12-08T00:44:57.607Z,8.38
2022-12-08T00:47:25.275Z,7.25
2022-12-08T00:49:52.771Z,6.20
2022-12-08T00:52:20.538Z,12.38
2022-12-08T00:54:48.557Z,5.97
2022-12-08T00:57:16.045Z,8.52
2022-12-08T00:59:43.572Z,6.90
2022-12-08T01:02:11.220Z,5.90
2022-12-08T01:04:39.132Z,5.55
2022-12-08T01:07:06.677Z,3.27
2022-12-08T01:09:34.189Z,4.25
2022-12-08T01:12:01.814Z,5.00
2022-12-08T01:14:29.341Z,4.43
2022-12-08T01:16:57.077Z,4.90
2022-12-08T01:19:24.768Z,3.50
2022-12-08T01:21:52.310Z,6.20
2022-12-08T01:24:21.345Z,4.03
2022-12-08T01:26:50.873Z,5.00
2022-12-08T01:29:18.566Z,4.25
2022-12-08T01:31:46.052Z,3.23
2022-12-08T01:34:13.557Z,5.60
2022-12-08T01:36:42.512Z,5.05
2022-12-08T01:39:19.971Z,5.50
2022-12-08T01:41:47.929Z,4.10
2022-12-08T01:44:15.390Z,3.97
2022-12-08T01:46:45.547Z,5.18
2022-12-08T01:49:18.015Z,6.18
2022-12-08T01:51:57.275Z,5.97
2022-12-08T01:54:29.169Z,3.45
2022-12-08T01:57:06.444Z,4.43
2022-12-08T01:59:38.910Z,2.58
2022-12-08T02:02:06.384Z,4.38
2022-12-08T02:04:34.061Z,1.83
2022-12-08T02:07:07.804Z,3.60
2022-12-08T02:09:37.731Z,2.40
2022-12-08T02:12:05.605Z,4.60
2022-12-08T02:14:34.503Z,3.65
2022-12-08T02:17:49.267Z,2.97
2022-12-08T02:20:42.309Z,3.33
2022-12-08T02:23:24.243Z,3.83
2022-12-08T02:26:09.837Z,3.25
2022-12-08T02:29:25.151Z,4.25
2022-12-08T02:32:23.908Z,4.68
2022-12-08T02:34:57.477Z,4.40
2022-12-08T02:37:41.086Z,2.40
2022-12-08T02:40:27.360Z,3.85
2022-12-08T02:43:20.273Z,3.78
2022-12-08T02:45:57.096Z,1.88
2022-12-08T02:48:28.444Z,2.55
2022-12-08T02:50:56.465Z,4.33
2022-12-08T02:53:24.003Z,1.48
2022-12-08T02:56:09.667Z,4.20
2022-12-08T02:59:00.299Z,1.95
2022-12-08T03:01:37.471Z,3.55
2022-12-08T03:04:22.567Z,6.03
2022-12-08T03:07:24.688Z,3.05
2022-12-08T03:10:03.602Z,4.72
2022-12-08T03:12:48.639Z,4.45
2022-12-08T03:15:19.809Z,2.90
2022-12-08T03:17:53.375Z,2.93
2022-12-08T03:20:27.943Z,1.65
2022-12-08T03:22:57.521Z,3.42
2022-12-08T03:25:30.549Z,2.13
2022-12-08T03:27:59.821Z,4.03
2022-12-08T03:30:31.907Z,1.13
2022-12-08T03:33:06.268Z,5.00
2022-12-08T03:35:37.003Z,5.35
2022-12-08T03:38:13.647Z,2.45
2022-12-08T03:40:41.546Z,3.88
2022-12-08T03:43:09.440Z,3.93
2022-12-08T03:45:37.142Z,3.72
2022-12-08T03:48:04.707Z,4.65
2022-12-08T03:50:32.540Z,2.25
2022-12-08T03:53:00.088Z,5.47
2022-12-08T03:55:27.773Z,4.23
2022-12-08T03:57:55.237Z,1.88
2022-12-08T04:00:23.052Z,4.93
2022-12-08T04:02:50.655Z,3.05
2022-12-08T04:05:18.220Z,2.30
2022-12-08T04:07:45.748Z,5.47
2022-12-08T04:10:13.363Z,5.07
2022-12-08T04:12:40.850Z,2.60
2022-12-08T04:15:09.130Z,5.60
2022-12-08T04:17:36.618Z,3.60
2022-12-08T04:20:04.745Z,7.17
2022-12-08T04:22:32.529Z,1.75
2022-12-08T04:25:00.199Z,6.15
2022-12-08T04:27:27.745Z,1.65
2022-12-08T04:29:55.217Z,5.30
2022-12-08T04:32:22.678Z,3.37
2022-12-08T04:34:50.228Z,7.70
2022-12-08T04:37:17.689Z,4.18
2022-12-08T04:39:45.174Z,1.52
2022-12-08T04:42:12.622Z,2.55
2022-12-08T04:44:40.178Z,1.67
2022-12-08T04:47:07.708Z,11.38
2022-12-08T04:49:35.255Z,4.05
2022-12-08T04:52:02.967Z,3.70
2022-12-08T04:54:30.505Z,2.45
2022-12-08T04:56:57.971Z,3.33
2022-12-08T04:59:25.523Z,1.80
2022-12-08T05:01:53.150Z,3.80
2022-12-08T05:04:20.812Z,3.60
2022-12-08T05:06:48.349Z,3.50
2022-12-08T05:09:15.864Z,3.27
2022-12-08T05:11:48.627Z,4.97
2022-12-08T05:14:18.576Z,1.02
2022-12-08T05:16:47.220Z,3.33
2022-12-08T05:19:15.966Z,5.32
2022-12-08T05:21:43.654Z,1.60
2022-12-08T05:24:11.223Z,3.67
2022-12-08T05:26:38.675Z,5.00
2022-12-08T05:29:06.180Z,4.28
2022-12-08T05:31:33.988Z,6.93
2022-12-08T05:34:03.444Z,3.20
2022-12-08T05:36:31.167Z,3.83
2022-12-08T05:38:58.678Z,4.65
2022-12-08T05:41:26.387Z,2.55
2022-12-08T05:43:53.919Z,3.63
2022-12-08T05:46:22.089Z,2.60
2022-12-08T05:48:49.779Z,2.47
2022-12-08T05:51:23.242Z,3.38
2022-12-08T05:53:52.022Z,2.47
2022-12-08T05:56:20.158Z,3.78
2022-12-08T05:58:48.369Z,2.90
2022-12-08T06:01:28.144Z,3.88
2022-12-08T06:03:57.856Z,8.43
2022-12-08T06:06:25.936Z,6.63
2022-12-08T06:08:54.377Z,2.55
2022-12-08T06:11:27.812Z,1.90
2022-12-08T06:13:56.904Z,4.90
2022-12-08T06:16:26.533Z,4.80
2022-12-08T06:18:55.208Z,3.85
2022-12-08T06:21:23.233Z,3.72
2022-12-08T06:23:52.871Z,6.37
2022-12-08T06:26:21.338Z,4.22
2022-12-08T06:28:49.699Z,2.17
2022-12-08T06:31:20.508Z,5.20
2022-12-08T06:33:48.801Z,8.65
2022-12-08T06:36:19.463Z,4.30
2022-12-08T06:38:47.559Z,5.63
2022-12-08T06:41:15.885Z,6.95
2022-12-08T06:43:44.087Z,3.33
2022-12-08T06:46:16.264Z,10.02
2022-12-08T06:48:44.118Z,4.03
2022-12-08T06:51:20.711Z,3.70
2022-12-08T06:53:48.534Z,2.83
2022-12-08T06:56:17.118Z,5.22
2022-12-08T06:58:50.450Z,7.07
2022-12-08T07:01:19.799Z,1.93
2022-12-08T07:03:48.110Z,5.90
2022-12-08T07:06:19.344Z,5.00
2022-12-08T07:08:47.171Z,4.38
2022-12-08T07:11:21.202Z,5.03
2022-12-08T07:13:50.348Z,8.17
2022-12-08T07:16:18.162Z,4.95
2022-12-08T07:18:45.736Z,4.82
2022-12-08T07:21:17.308Z,5.20
2022-12-08T07:23:54.213Z,6.07
2022-12-08T07:26:26.917Z,4.17
2022-12-08T07:28:54.896Z,9.45
2022-12-08T07:31:25.214Z,4.22
2022-12-08T07:33:53.647Z,4.88
2022-12-08T07:36:21.607Z,7.57
2022-12-08T07:38:50.412Z,5.57
2022-12-08T07:41:23.684Z,7.53
2022-12-08T07:43:52.093Z,4.30
2022-12-08T07:46:22.032Z,15.40
2022-12-08T07:48:49.797Z,9.50
2022-12-08T07:51:17.686Z,14.13
2022-12-08T07:53:53.387Z,7.93
2022-12-08T07:56:22.584Z,17.90
2022-12-08T07:58:50.632Z,4.93
2022-12-08T08:01:29.689Z,12.57
2022-12-08T08:04:02.075Z,10.90
2022-12-08T08:06:30.039Z,11.30
2022-12-08T08:08:57.586Z,9.68
2022-12-08T08:11:25.286Z,12.13
2022-12-08T08:13:53.729Z,24.65
2022-12-08T08:16:21.791Z,8.93
2022-12-08T08:18:50.841Z,14.02
2022-12-08T08:24:08.011Z,6.50
2022-12-08T08:26:37.225Z,10.52
2022-12-08T08:29:04.955Z,11.30
2022-12-08T08:31:32.573Z,6.07
2022-12-08T08:34:05.032Z,12.85
2022-12-08T08:36:33.062Z,9.75
2022-12-08T08:39:00.591Z,9.55
2022-12-08T08:41:28.133Z,8.23
2022-12-08T08:43:55.677Z,10.07
2022-12-08T08:46:23.304Z,9.65
2022-12-08T08:48:50.847Z,6.15
2022-12-08T08:51:18.544Z,7.32
2022-12-08T08:53:46.166Z,10.70
2022-12-08T08:56:19.385Z,13.30
2022-12-08T08:58:49.666Z,6.55
2022-12-08T09:01:22.802Z,8.10
2022-12-08T09:03:50.984Z,12.60
2022-12-08T09:06:19.415Z,7.83
2022-12-08T09:08:48.635Z,7.38
2022-12-08T09:11:18.706Z,5.10
2022-12-08T09:13:51.545Z,6.28
2022-12-08T09:16:19.900Z,9.10
2022-12-08T09:18:51.209Z,8.03
2022-12-08T09:21:26.103Z,8.55
2022-12-08T09:23:56.374Z,9.23
2022-12-08T09:26:25.398Z,8.32
2022-12-08T09:28:55.000Z,20.52
2022-12-08T09:31:24.524Z,12.43
2022-12-08T09:33:52.398Z,17.67
2022-12-08T09:36:21.113Z,11.48
2022-12-08T09:38:50.383Z,9.82
2022-12-08T09:41:36.851Z,12.15
2022-12-08T09:44:06.646Z,12.63
2022-12-08T09:46:35.789Z,9.13
2022-12-08T09:49:11.678Z,12.02
2022-12-08T09:51:42.004Z,9.10
2022-12-08T09:54:13.793Z,11.02
2022-12-08T09:56:41.806Z,7.77
2022-12-08T09:59:09.258Z,8.88
2022-12-08T10:01:42.095Z,9.85
2022-12-08T10:04:24.116Z,9.43
2022-12-08T10:07:17.017Z,7.63
2022-12-08T10:09:58.113Z,9.27
2022-12-08T10:12:43.263Z,8.02
2022-12-08T10:15:16.882Z,7.72
2022-12-08T10:17:49.149Z,14.02
2022-12-08T10:20:22.576Z,25.13
2022-12-08T10:23:06.547Z,24.13
2022-12-08T10:25:41.426Z,9.13
2022-12-08T10:28:11.103Z,12.43
2022-12-08T10:30:38.936Z,11.25
2022-12-08T10:33:15.341Z,10.95
2022-12-08T10:35:58.398Z,10.57
2022-12-08T10:38:37.416Z,8.48
2022-12-08T10:41:14.672Z,8.50
2022-12-08T10:43:53.444Z,10.20
2022-12-08T10:46:27.075Z,11.07
2022-12-08T10:49:06.862Z,13.37
2022-12-08T10:51:34.519Z,10.43
2022-12-08T10:54:03.377Z,8.52
2022-12-08T10:56:31.544Z,5.47
2022-12-08T10:59:07.160Z,6.82
2022-12-08T11:01:39.386Z,8.73
2022-12-08T11:04:21.142Z,8.65
2022-12-08T11:06:50.728Z,7.07
2022-12-08T11:09:18.625Z,7.05
2022-12-08T11:11:50.606Z,5.35
2022-12-08T11:14:27.766Z,6.63
2022-12-08T11:17:07.396Z,5.57
2022-12-08T11:19:39.485Z,7.53
2022-12-08T11:22:26.899Z,5.78
2022-12-08T11:25:27.142Z,5.18
2022-12-08T11:28:00.892Z,9.07
2022-12-08T11:30:36.918Z,5.50
2022-12-08T11:33:23.956Z,6.38
2022-12-08T11:36:12.034Z,8.90
2022-12-08T11:38:47.846Z,6.88
2022-12-08T11:41:19.375Z,6.70
2022-12-08T11:44:02.233Z,9.82
2022-12-08T11:46:43.354Z,9.30
2022-12-08T11:49:13.802Z,8.70
2022-12-08T11:51:48.317Z,5.50
2022-12-08T11:54:26.489Z,6.83
2022-12-08T11:57:00.870Z,8.65
2022-12-08T11:59:34.774Z,8.35
2022-12-08T12:02:04.645Z,9.60
2022-12-08T12:04:50.057Z,10.43
2022-12-08T12:07:37.489Z,10.10
2022-12-08T12:10:39.119Z,5.88
2022-12-08T12:13:30.700Z,7.72
2022-12-08T12:16:17.436Z,6.70
2022-12-08T12:18:53.247Z,7.97
2022-12-08T12:21:29.659Z,5.10
2022-12-08T12:24:10.492Z,7.88
2022-12-08T12:26:49.749Z,7.97
2022-12-08T12:29:20.260Z,5.13
2022-12-08T12:40:24.733Z,5.88
2022-12-08T12:42:54.984Z,4.97
2022-12-08T12:45:22.482Z,6.55
2022-12-08T12:47:56.203Z,5.88
2022-12-08T12:50:33.599Z,5.70
2022-12-08T12:53:15.608Z,6.53
2022-12-08T12:55:46.205Z,8.55
2022-12-08T12:58:36.567Z,11.00
2022-12-08T13:01:12.924Z,13.57
2022-12-08T13:03:44.174Z,21.77
2022-12-08T13:06:14.976Z,6.35
2022-12-08T13:09:03.707Z,6.82
2022-12-08T13:11:48.071Z,4.18
2022-12-08T13:14:31.699Z,5.60
2022-12-08T13:17:01.677Z,7.43
2022-12-08T13:23:36.587Z,7.15
2022-12-08T13:26:15.088Z,4.82
2022-12-08T13:29:08.735Z,4.57
2022-12-08T13:40:27.785Z,5.10
2022-12-08T13:43:10.670Z,4.93
2022-12-08T13:46:41.961Z,6.15
2022-12-08T13:57:32.754Z,4.70
2022-12-08T14:00:14.803Z,7.43
2022-12-08T14:02:47.771Z,6.27
2022-12-08T14:05:23.450Z,8.63
2022-12-08T14:07:57.595Z,7.63
2022-12-08T14:10:32.125Z,8.43
2022-12-08T14:13:06.473Z,7.10
2022-12-08T14:15:38.088Z,5.83
2022-12-08T14:18:21.204Z,4.80
2022-12-08T14:21:22.087Z,9.77
2022-12-08T14:23:49.827Z,11.02
2022-12-08T14:26:18.116Z,7.05
2022-12-08T14:28:45.946Z,7.50
2022-12-08T14:31:14.683Z,7.95
2022-12-08T14:33:43.146Z,6.97
2022-12-08T14:36:14.682Z,7.20
2022-12-08T14:38:42.405Z,6.30
2022-12-08T14:41:12.056Z,7.00
2022-12-08T14:43:43.195Z,9.13
2022-12-08T14:46:22.479Z,12.27
2022-12-08T14:48:50.340Z,8.35
2022-12-08T14:51:25.320Z,8.75
2022-12-08T14:54:00.049Z,6.00
2022-12-08T14:56:41.891Z,6.78
2022-12-08T14:59:09.518Z,13.43
2022-12-08T15:01:42.241Z,55.95
2022-12-08T15:04:13.021Z,24.10
2022-12-08T15:06:59.833Z,20.27
2022-12-08T15:09:30.218Z,7.20
2022-12-08T15:12:02.917Z,6.93
2022-12-08T15:14:36.344Z,5.25
2022-12-08T15:17:24.521Z,7.55
2022-12-08T15:19:57.174Z,6.50
2022-12-08T15:22:26.660Z,6.43
2022-12-08T15:24:54.668Z,8.13
2022-12-08T15:27:25.052Z,12.15
2022-12-08T15:34:37.657Z,8.63
2022-12-08T15:37:52.084Z,7.88
2022-12-08T15:40:23.048Z,10.88
2022-12-08T15:42:50.676Z,5.50
2022-12-08T15:45:18.871Z,11.02
2022-12-08T15:47:46.524Z,10.33
2022-12-08T15:50:22.375Z,14.07
2022-12-08T15:52:50.949Z,11.73
2022-12-08T15:55:20.693Z,11.75
2022-12-08T16:00:57.952Z,7.33
2022-12-08T16:04:09.343Z,8.88
2022-12-08T16:09:17.647Z,9.90
2022-12-08T16:12:07.115Z,12.43
2022-12-08T16:17:24.383Z,14.57
2022-12-08T16:19:51.959Z,13.82
2022-12-08T16:25:21.135Z,10.27
2022-12-08T16:28:12.389Z,11.07
2022-12-08T16:30:45.519Z,14.88
2022-12-08T16:33:13.227Z,16.50
2022-12-08T16:44:48.037Z,14.30
2022-12-08T16:47:15.723Z,14.85
2022-12-08T16:49:43.272Z,21.80
2022-12-08T16:52:11.059Z,10.93
2022-12-08T16:54:50.566Z,19.05
2022-12-08T16:57:21.074Z,13.00
2022-12-08T16:59:48.653Z,14.27
2022-12-08T17:02:16.666Z,16.70
2022-12-08T17:04:44.433Z,11.43
2022-12-08T17:07:12.092Z,10.75
2022-12-08T17:09:39.700Z,15.77
2022-12-08T17:12:07.432Z,14.10
2022-12-08T17:14:35.744Z,13.00
2022-12-08T17:17:03.895Z,13.13
2022-12-08T17:19:32.033Z,10.52
2022-12-08T17:21:59.634Z,14.27
2022-12-08T17:24:29.139Z,13.98
2022-12-08T17:26:58.428Z,15.68
2022-12-08T17:29:25.942Z,12.05
2022-12-08T17:31:53.647Z,12.75
2022-12-08T17:34:21.753Z,13.43
2022-12-08T17:36:49.384Z,8.73
2022-12-08T17:39:18.956Z,11.88
2022-12-08T17:41:47.426Z,6.85
2022-12-08T17:44:19.234Z,10.60
2022-12-08T17:46:52.506Z,7.07
2022-12-08T17:49:24.985Z,15.82
2022-12-08T17:51:55.527Z,8.73
2022-12-08T17:54:23.489Z,6.97
2022-12-08T17:56:51.515Z,12.48
2022-12-08T17:59:19.143Z,6.10
2022-12-08T18:01:46.952Z,11.23
2022-12-08T18:04:14.851Z,10.98
2022-12-08T18:06:42.424Z,14.13
2022-12-08T18:09:10.099Z,12.30
2022-12-08T18:11:37.687Z,12.23
2022-12-08T18:14:10.277Z,22.15
2022-12-08T18:16:40.824Z,18.33
2022-12-08T18:19:09.711Z,16.50
2022-12-08T18:21:38.107Z,13.15
2022-12-08T18:24:37.944Z,11.30
2022-12-08T18:27:05.527Z,13.98
2022-12-08T18:29:33.534Z,17.27
2022-12-08T18:32:16.167Z,15.57
2022-12-08T18:34:44.296Z,11.93
2022-12-08T18:37:11.823Z,17.90
2022-12-08T18:39:39.703Z,33.80
2022-12-08T18:42:23.042Z,17.65
2022-12-08T18:45:07.506Z,17.75
2022-12-08T18:47:39.730Z,13.35
2022-12-08T18:50:09.256Z,18.63
2022-12-08T18:52:36.894Z,15.63
2022-12-08T18:55:06.713Z,19.30
2022-12-08T18:57:38.422Z,15.55
2022-12-08T19:00:08.427Z,10.98
2022-12-08T19:02:38.532Z,13.17
2022-12-08T19:05:08.142Z,17.67
2022-12-08T19:07:36.034Z,22.95
2022-12-08T19:10:05.090Z,22.13
2022-12-08T19:12:33.026Z,25.75
2022-12-08T19:15:00.593Z,24.77
2022-12-08T19:17:29.786Z,20.55
2022-12-08T19:19:57.580Z,19.92
2022-12-08T19:22:25.214Z,22.67
2022-12-08T19:24:52.828Z,21.50
2022-12-08T19:27:20.480Z,23.30
2022-12-08T19:29:48.088Z,21.20
2022-12-08T19:32:15.679Z,17.10
2022-12-08T19:34:43.265Z,20.80
2022-12-08T19:37:12.687Z,19.58
2022-12-08T19:39:59.673Z,21.27
2022-12-08T19:42:45.879Z,16.85
2022-12-08T19:45:18.556Z,17.90
2022-12-08T19:48:43.005Z,17.25
2022-12-08T19:56:18.590Z,16.50
2022-12-08T19:58:46.271Z,16.38
2022-12-08T20:01:14.068Z,16.40
2022-12-08T20:03:41.810Z,16.35
2022-12-08T20:06:18.012Z,22.30
2022-12-08T20:08:50.369Z,20.43
2022-12-08T20:11:18.482Z,21.92
2022-12-08T20:13:47.793Z,20.20
2022-12-08T20:16:16.557Z,19.00
2022-12-08T20:18:44.367Z,18.38
2022-12-08T20:21:12.519Z,22.00
2022-12-08T20:23:41.178Z,18.65
2022-12-08T20:26:12.463Z,21.92
2022-12-08T20:28:40.214Z,14.82
2022-12-08T20:31:08.017Z,16.63
2022-12-08T20:33:37.743Z,16.43
2022-12-08T20:36:07.532Z,17.60
2022-12-08T20:38:35.197Z,16.83
2022-12-08T20:41:03.198Z,17.17
2022-12-08T20:43:30.818Z,18.05
2022-12-08T20:45:58.443Z,17.67
2022-12-08T20:52:14.535Z,14.13
2022-12-08T20:54:42.221Z,15.27
2022-12-08T20:57:09.877Z,15.55
2022-12-08T20:59:37.577Z,16.33
2022-12-08T21:02:05.375Z,16.02
2022-12-08T21:04:33.201Z,20.55
2022-12-08T21:07:00.957Z,21.75
2022-12-08T21:09:28.910Z,15.18
2022-12-08T21:11:56.686Z,15.37
2022-12-08T21:14:24.378Z,17.48
2022-12-08T21:16:54.633Z,12.13
2022-12-08T21:19:22.726Z,13.75
2022-12-08T21:21:51.008Z,17.75
2022-12-08T21:24:19.378Z,12.70
2022-12-08T21:26:47.106Z,8.85
2022-12-08T21:29:14.914Z,9.18
2022-12-08T21:31:42.673Z,10.73
2022-12-08T21:34:11.504Z,12.65
2022-12-08T21:36:39.181Z,8.50
2022-12-08T21:39:12.783Z,12.25
2022-12-08T21:41:59.609Z,12.45
2022-12-08T21:44:27.493Z,13.35
2022-12-08T21:46:55.167Z,18.17
2022-12-08T21:49:22.968Z,14.33
2022-12-08T21:51:50.985Z,11.85
2022-12-08T21:54:19.583Z,14.90
2022-12-08T21:56:49.097Z,10.23
2022-12-08T21:59:18.462Z,12.40
2022-12-08T22:01:46.759Z,13.70
2022-12-08T22:04:18.259Z,11.55
2022-12-08T22:06:46.063Z,12.82
2022-12-08T22:09:15.258Z,19.98
2022-12-08T22:11:44.161Z,20.52
2022-12-08T22:14:14.981Z,15.50
2022-12-08T22:16:44.364Z,16.60
2022-12-08T22:19:12.698Z,16.98
2022-12-08T22:21:40.458Z,21.67
2022-12-08T22:24:08.281Z,22.23
2022-12-08T22:26:36.042Z,14.73
2022-12-08T22:29:03.846Z,10.10
2022-12-08T22:31:31.852Z,9.93
2022-12-08T22:34:00.180Z,9.75
2022-12-08T22:36:28.765Z,7.03
2022-12-08T22:38:56.481Z,6.90
2022-12-08T22:41:24.480Z,8.48
2022-12-08T22:43:52.317Z,13.30
2022-12-08T22:46:23.435Z,12.38
2022-12-08T22:48:54.128Z,11.68
2022-12-08T22:51:21.959Z,10.30
2022-12-08T22:53:50.162Z,9.65
2022-12-08T22:56:19.179Z,10.30
2022-12-08T22:58:47.820Z,7.13
2022-12-08T23:01:26.693Z,11.82
2022-12-08T23:03:55.025Z,8.47
2022-12-08T23:06:23.540Z,14.43
2022-12-08T23:08:52.322Z,8.07
2022-12-08T23:11:22.285Z,8.80
2022-12-08T23:13:49.947Z,10.05
2022-12-08T23:16:17.950Z,7.53
2022-12-08T23:18:47.329Z,10.70
2022-12-08T23:21:18.606Z,8.77
2022-12-08T23:23:46.898Z,8.88
2022-12-08T23:26:23.787Z,8.93
2022-12-08T23:28:51.893Z,9.00
2022-12-08T23:31:20.663Z,8.07
2022-12-08T23:33:48.852Z,8.15
2022-12-08T23:36:17.880Z,9.55
2022-12-08T23:38:46.244Z,14.73
2022-12-08T23:41:15.974Z,7.73
2022-12-08T23:43:46.814Z,7.82
2022-12-08T23:46:16.982Z,8.25
2022-12-08T23:48:44.781Z,8.48
2022-12-08T23:51:13.107Z,10.02
2022-12-08T23:53:41.563Z,8.07
2022-12-08T23:56:12.212Z,6.85
2022-12-08T23:58:40.690Z,8.82
